Time;durP1;ratioP1;P1;durP2;ratioP2;P2;SDS_P1;SDS_P2;PMS_P1;PMS_P2;Temp;Humidity;BMP_temperature;BMP_pressure;BME280_temperature;BME280_humidity;BME280_pressure;Samples;Min_cycle;Max_cycle;Signal;HPM_P1;HPM_P2
2023/09/21 00:06:32;;;;;;;4.37;1.77;;;;;;;16.30;100.00;96890.78;18549184;32;20049;-55
2023/09/21 00:16:34;;;;;;;6.65;2.00;;;;;;;16.27;100.00;96879.38;18562539;32;20071;-55
2023/09/21 00:26:37;;;;;;;3.58;1.45;;;;;;;16.29;100.00;96865.41;18547406;32;20376;-55
2023/09/21 00:36:44;;;;;;;3.87;1.70;;;;;;;16.19;100.00;96863.84;18547577;32;20135;-55
2023/09/21 00:46:48;;;;;;;8.65;2.12;;;;;;;16.26;100.00;96858.66;18494220;32;20110;-55
2023/09/21 00:56:54;;;;;;;5.87;1.70;;;;;;;16.29;100.00;96851.75;18494915;32;20072;-54
2023/09/21 01:06:56;;;;;;;8.55;1.83;;;;;;;16.32;100.00;96833.94;18495435;32;20061;-55
2023/09/21 01:16:59;;;;;;;3.08;1.58;;;;;;;16.28;100.00;96822.91;18495190;32;20124;-55
2023/09/21 01:27:01;;;;;;;5.53;1.83;;;;;;;16.29;100.00;96826.41;18495292;32;20081;-55
2023/09/21 01:37:05;;;;;;;7.57;1.83;;;;;;;16.30;100.00;96828.03;18504969;32;20357;-55
2023/09/21 01:47:09;;;;;;;;;;;;;;;16.26;100.00;96806.06;18561650;32;20057;-54
2023/09/21 01:57:11;;;;;;;5.18;1.87;;;;;;;16.24;100.00;96783.78;18557056;32;19956;-55
2023/09/21 02:07:14;;;;;;;5.65;1.80;;;;;;;16.22;100.00;96770.44;18570533;32;20353;-55
2023/09/21 02:17:17;;;;;;;5.67;1.67;;;;;;;16.18;100.00;96769.50;18569915;32;20071;-55
2023/09/21 02:27:21;;;;;;;4.05;1.77;;;;;;;16.18;100.00;96755.88;18569433;32;20073;-55
2023/09/21 02:37:23;;;;;;;6.43;1.60;;;;;;;16.18;100.00;96761.31;18568780;32;20049;-55
2023/09/21 02:47:29;;;;;;;1.95;1.40;;;;;;;16.13;100.00;96742.44;18567153;31;20057;-55
2023/09/21 02:57:33;;;;;;;5.03;1.80;;;;;;;16.10;100.00;96732.16;18568305;32;20483;-56
2023/09/21 03:07:38;;;;;;;4.50;1.90;;;;;;;16.07;100.00;96724.66;18566695;31;20094;-55
2023/09/21 03:17:42;;;;;;;5.95;1.95;;;;;;;16.08;100.00;96718.06;18552337;32;20477;-55
2023/09/21 03:27:45;;;;;;;;;;;;;;;16.07;100.00;96703.66;18551033;32;20395;-55
2023/09/21 03:37:48;;;;;;;6.70;2.12;;;;;;;16.06;100.00;96693.87;18565378;32;20260;-54
2023/09/21 03:47:51;;;;;;;3.70;1.50;;;;;;;16.05;100.00;96691.47;18564659;32;20064;-55
2023/09/21 03:57:54;;;;;;;;;;;;;;;16.05;100.00;96696.94;18537643;32;20377;-55
2023/09/21 04:07:57;;;;;;;10.05;1.80;;;;;;;16.04;100.00;96687.16;18563196;32;20268;-56
2023/09/21 04:18:01;;;;;;;4.23;1.90;;;;;;;15.98;100.00;96692.00;18548730;32;20108;-55
2023/09/21 04:28:05;;;;;;;4.43;1.70;;;;;;;15.95;100.00;96678.22;18561961;32;20195;-54
2023/09/21 04:38:08;;;;;;;2.37;1.60;;;;;;;15.90;100.00;96671.81;18561605;32;20140;-55
2023/09/21 04:48:11;;;;;;;4.45;1.55;;;;;;;15.92;100.00;96677.75;18560986;31;20135;-55
2023/09/21 04:58:13;;;;;;;4.72;1.65;;;;;;;15.96;100.00;96672.41;18546426;31;20049;-55
2023/09/21 05:08:15;;;;;;;2.70;1.60;;;;;;;15.97;100.00;96668.56;18559990;32;20075;-55
2023/09/21 05:18:18;;;;;;;4.25;1.70;;;;;;;15.92;100.00;96663.31;18545922;32;20061;-55
2023/09/21 05:28:20;;;;;;;2.25;1.77;;;;;;;15.85;100.00;96658.38;18559865;32;20108;-55
2023/09/21 05:38:24;;;;;;;4.18;1.75;;;;;;;15.83;100.00;96662.56;18559664;32;20056;-55
2023/09/21 05:48:26;;;;;;;3.30;1.80;;;;;;;15.86;100.00;96656.47;18493090;32;20061;-55
2023/09/21 05:58:30;;;;;;;5.00;1.70;;;;;;;15.87;100.00;96661.59;18494445;32;20067;-58
2023/09/21 06:08:33;;;;;;;1.90;1.50;;;;;;;15.92;100.00;96658.66;18492287;32;20429;-56
2023/09/21 06:18:36;;;;;;;1.87;1.47;;;;;;;16.00;100.00;96643.38;18497165;32;20097;-56
2023/09/21 06:28:40;;;;;;;2.93;1.60;;;;;;;16.06;100.00;96654.87;18504405;32;20065;-56
2023/09/21 06:38:45;;;;;;;3.00;1.30;;;;;;;16.26;100.00;96636.94;18503886;32;20056;-55
2023/09/21 06:48:48;;;;;;;3.45;1.70;;;;;;;16.46;100.00;96626.34;18568138;32;20074;-56
2023/09/21 06:58:52;;;;;;;4.13;1.60;;;;;;;16.58;100.00;96629.94;18567816;32;20045;-56
2023/09/21 07:08:54;;;;;;;3.35;1.60;;;;;;;16.73;100.00;96619.53;18566782;32;20108;-56
2023/09/21 07:18:57;;;;;;;2.87;1.70;;;;;;;16.80;100.00;96608.87;18566663;32;20057;-56
2023/09/21 07:29:06;;;;;;;3.90;2.03;;;;;;;17.14;100.00;96606.12;18565256;32;20160;-57
2023/09/21 07:39:10;;;;;;;4.35;1.98;;;;;;;17.57;100.00;96610.28;18550823;31;20174;-57
2023/09/21 07:49:15;;;;;;;5.07;2.35;;;;;;;18.21;100.00;96584.13;18564515;32;20107;-56
2023/09/21 07:59:18;;;;;;;2.45;2.00;;;;;;;18.68;100.00;96565.44;18563962;32;20068;-56
2023/09/21 08:09:20;;;;;;;4.17;2.00;;;;;;;19.11;100.00;96572.06;18548894;32;20056;-56
2023/09/21 08:19:37;;;;;;;2.15;1.42;;;;;;;19.13;100.00;96561.56;18562846;32;20052;-55
2023/09/21 08:29:41;;;;;;;3.97;2.17;;;;;;;19.51;100.00;96546.41;18562043;32;20052;-56
2023/09/21 08:39:45;;;;;;;2.45;1.98;;;;;;;19.85;100.00;96546.81;18560192;32;20368;-56
2023/09/21 08:49:48;;;;;;;2.15;1.60;;;;;;;19.91;100.00;96547.31;18561089;32;20061;-56
2023/09/21 08:59:55;;;;;;;2.17;1.40;;;;;;;20.17;100.00;96546.69;18547497;32;20111;-56
2023/09/21 09:09:58;;;;;;;2.00;1.48;;;;;;;20.29;100.00;96554.78;18561131;32;20511;-56
2023/09/21 09:20:03;;;;;;;3.47;2.03;;;;;;;20.47;100.00;96537.88;18545948;32;20064;-56
2023/09/21 09:30:09;;;;;;;6.25;2.30;;;;;;;20.80;100.00;96517.31;18559626;31;20056;-57
2023/09/21 09:40:23;;;;;;;4.82;2.12;;;;;;;21.26;100.00;96522.03;18559337;32;20076;-56
2023/09/21 09:50:32;;;;;;;3.25;1.87;;;;;;;21.15;100.00;96517.13;18546087;32;20100;-56
2023/09/21 10:00:37;;;;;;;3.10;1.95;;;;;;;21.63;100.00;96489.22;18571346;32;20060;-57
2023/09/21 10:10:57;;;;;;;2.47;2.00;;;;;;;21.96;100.00;96479.41;18570606;32;20101;-57
2023/09/21 10:21:23;;;;;;;2.40;1.52;;;;;;;22.21;100.00;96476.16;18556105;32;20056;-57
2023/09/21 10:31:27;;;;;;;2.58;1.42;;;;;;;22.58;100.00;96464.37;18569190;32;20053;-57
2023/09/21 10:41:30;;;;;;;2.22;1.05;;;;;;;22.74;100.00;96460.62;18568514;32;20052;-58
2023/09/21 10:51:39;;;;;;;6.30;1.83;;;;;;;22.71;100.00;96433.81;18568475;32;20111;-57
2023/09/21 11:01:42;;;;;;;2.15;1.48;;;;;;;22.76;100.00;96425.19;18567368;32;20436;-57
2023/09/21 11:11:47;;;;;;;2.10;1.55;;;;;;;22.96;100.00;96414.72;18540516;32;20052;-57
2023/09/21 11:21:50;;;;;;;2.85;1.62;;;;;;;22.99;100.00;96400.97;18551782;32;20079;-57
2023/09/21 11:31:55;;;;;;;3.28;1.87;;;;;;;23.04;100.00;96372.25;18565673;32;20071;-57
2023/09/21 11:41:58;;;;;;;3.28;2.17;;;;;;;23.37;100.00;96355.94;18550739;32;20044;-57
2023/09/21 11:52:01;;;;;;;3.08;1.95;;;;;;;23.65;100.00;96334.00;18537386;32;20115;-57
2023/09/21 12:02:09;;;;;;;2.40;1.65;;;;;;;23.78;100.00;96325.34;18563786;32;20052;-57
2023/09/21 12:12:13;;;;;;;2.50;1.50;;;;;;;23.66;100.00;96316.22;18563138;31;20099;-57
2023/09/21 12:22:16;;;;;;;2.35;1.40;;;;;;;23.84;100.00;96287.91;18547801;32;20390;-57
2023/09/21 12:32:19;;;;;;;2.17;1.50;;;;;;;23.99;100.00;96284.00;18562189;32;20056;-57
2023/09/21 12:42:22;;;;;;;2.05;1.40;;;;;;;24.24;100.00;96260.34;18561145;32;20107;-57
2023/09/21 12:52:25;;;;;;;3.95;1.62;;;;;;;24.36;100.00;96257.19;18534101;32;20437;-57
2023/09/21 13:02:30;;;;;;;1.92;1.70;;;;;;;24.37;100.00;96245.75;18546374;32;20075;-57
2023/09/21 13:12:35;;;;;;;2.05;1.33;;;;;;;24.34;100.00;96243.78;18560070;32;20088;-57
2023/09/21 13:22:39;;;;;;;4.80;1.60;;;;;;;24.37;100.00;96231.16;18559817;32;20173;-57
2023/09/21 13:32:43;;;;;;;2.47;1.92;;;;;;;24.28;100.00;96230.75;18570816;32;20068;-58
2023/09/21 13:42:46;;;;;;;3.47;1.50;;;;;;;23.98;100.00;96223.66;18557783;32;20350;-57
2023/09/21 13:52:49;;;;;;;3.97;1.48;;;;;;;23.32;100.00;96242.06;18572200;32;20318;-56
2023/09/21 14:02:53;;;;;;;1.50;0.95;;;;;;;22.80;100.00;96220.16;18571140;31;20480;-57
2023/09/21 14:12:57;;;;;;;1.08;0.60;;;;;;;22.48;100.00;96197.94;18570472;32;20117;-57
2023/09/21 14:23:00;;;;;;;1.10;0.90;;;;;;;22.47;100.00;96193.59;18555682;32;20041;-57
2023/09/21 14:33:07;;;;;;;3.55;1.00;;;;;;;22.47;100.00;96182.59;18555515;32;20059;-57
2023/09/21 14:43:11;;;;;;;1.37;0.80;;;;;;;22.37;100.00;96189.63;18567441;32;20040;-57
2023/09/21 14:53:14;;;;;;;0.98;0.80;;;;;;;22.22;100.00;96191.44;18568126;32;20104;-56
2023/09/21 15:03:18;;;;;;;2.58;0.50;;;;;;;22.52;100.00;96176.72;18567780;32;20452;-57
2023/09/21 15:13:21;;;;;;;0.73;0.50;;;;;;;22.82;100.00;96162.69;18552467;32;20091;-57
2023/09/21 15:23:25;;;;;;;3.53;0.62;;;;;;;23.07;100.00;96136.41;18551973;32;20503;-57
2023/09/21 15:33:32;;;;;;;2.30;0.80;;;;;;;22.66;100.00;96124.44;18565647;32;20064;-57
2023/09/21 15:43:37;;;;;;;2.05;0.70;;;;;;;22.20;100.00;96110.41;18564902;32;20441;-57
2023/09/21 15:53:42;;;;;;;0.95;0.50;;;;;;;21.92;100.00;96096.09;18564126;31;20045;-57
2023/09/21 16:03:47;;;;;;;0.77;0.52;;;;;;;21.68;100.00;96119.53;18563826;32;20493;-57
2023/09/21 16:13:51;;;;;;;3.95;0.68;;;;;;;21.40;100.00;96139.28;18563308;32;20049;-57
2023/09/21 16:23:54;;;;;;;3.35;0.80;;;;;;;21.09;100.00;96133.06;18548600;32;20467;-57
2023/09/21 16:33:58;;;;;;;6.68;1.33;;;;;;;20.75;100.00;96124.88;18562088;32;20049;-57
2023/09/21 16:44:01;;;;;;;7.82;1.23;;;;;;;20.51;100.00;96157.09;18547356;31;20048;-57
2023/09/21 16:54:05;;;;;;;;;;;;;;;20.19;100.00;96164.91;18561727;32;20101;-57
2023/09/21 17:04:10;;;;;;;6.55;1.12;;;;;;;19.93;100.00;96194.69;18560417;32;20389;-57
2023/09/21 17:14:13;;;;;;;1.42;0.43;;;;;;;19.67;100.00;96310.56;18560493;32;20485;-57
2023/09/21 17:24:16;;;;;;;0.73;0.20;;;;;;;18.79;100.00;96359.22;18560124;32;20433;-57
2023/09/21 17:34:20;;;;;;;0.60;0.20;;;;;;;18.09;100.00;96400.91;18559843;32;20049;-57
2023/09/21 17:44:24;;;;;;;2.85;0.20;;;;;;;17.58;100.00;96421.34;18558972;32;20076;-56
2023/09/21 17:54:28;;;;;;;;;;;;;;;17.34;100.00;96432.34;18545725;32;20053;-56
2023/09/21 18:04:31;;;;;;;0.35;0.13;;;;;;;17.08;100.00;96469.81;18559276;32;19955;-56
2023/09/21 18:14:34;;;;;;;;;;;;;;;16.81;100.00;96500.47;18564259;32;20147;-56
2023/09/21 18:24:37;;;;;;;0.35;0.10;;;;;;;16.60;100.00;96518.50;18570178;32;19959;-55
2023/09/21 18:34:42;;;;;;;0.40;0.15;;;;;;;16.51;100.00;96501.47;18569470;32;20455;-54
2023/09/21 18:44:46;;;;;;;1.35;0.28;;;;;;;16.42;100.00;96519.84;18554303;32;20072;-54
2023/09/21 18:54:49;;;;;;;0.82;0.20;;;;;;;16.36;100.00;96560.19;18568198;32;20045;-55
2023/09/21 19:04:52;;;;;;;1.23;0.30;;;;;;;16.33;100.00;96581.88;18567447;32;20068;-56
2023/09/21 19:14:56;;;;;;;1.20;0.30;;;;;;;16.23;100.00;96592.03;18566927;32;20179;-56
2023/09/21 19:24:58;;;;;;;8.37;0.60;;;;;;;16.06;100.00;96578.53;18551653;32;20115;-56
2023/09/21 19:35:01;;;;;;;6.28;0.40;;;;;;;15.90;100.00;96617.28;18566011;31;20071;-56
2023/09/21 19:45:05;;;;;;;0.90;0.33;;;;;;;15.74;100.00;96599.91;18550729;32;20420;-55
2023/09/21 19:55:08;;;;;;;;;;;;;;;15.76;100.00;96631.16;18564949;32;20051;-56
2023/09/21 20:05:10;;;;;;;2.83;0.40;;;;;;;15.61;100.00;96618.09;18564414;32;19956;-56
2023/09/21 20:15:13;;;;;;;3.62;0.50;;;;;;;15.61;100.00;96618.09;18563344;32;20441;-56
2023/09/21 20:25:16;;;;;;;1.95;0.35;;;;;;;15.58;100.00;96618.72;18562511;32;20448;-56
2023/09/21 20:35:19;;;;;;;5.57;0.30;;;;;;;15.55;100.00;96631.09;18547382;32;20429;-56
2023/09/21 20:45:22;;;;;;;5.45;0.30;;;;;;;15.52;100.00;96639.91;18547267;32;20053;-56
2023/09/21 20:55:24;;;;;;;3.40;0.70;;;;;;;15.39;100.00;96621.88;18561072;32;20134;-57
2023/09/21 21:05:27;;;;;;;5.35;0.65;;;;;;;15.33;100.00;96631.34;18560699;32;20056;-57
2023/09/21 21:15:29;;;;;;;4.40;0.30;;;;;;;15.31;100.00;96620.78;18560450;32;20053;-57
2023/09/21 21:25:32;;;;;;;2.83;0.40;;;;;;;15.28;100.00;96620.62;18560183;32;20062;-56
2023/09/21 21:35:35;;;;;;;4.45;0.50;;;;;;;15.25;100.00;96612.00;18545827;32;20514;-57
2023/09/21 21:45:37;;;;;;;1.95;0.50;;;;;;;15.20;100.00;96611.38;18559714;32;20407;-57
2023/09/21 21:55:40;;;;;;;1.83;0.35;;;;;;;15.21;100.00;96643.72;18557764;32;20119;-57
2023/09/21 22:05:43;;;;;;;6.35;0.62;;;;;;;15.15;100.00;96634.13;18571290;32;20422;-57
2023/09/21 22:15:46;;;;;;;4.43;0.47;;;;;;;15.15;100.00;96636.84;18556776;32;20071;-57
2023/09/21 22:25:49;;;;;;;2.28;0.68;;;;;;;15.12;100.00;96634.00;18555895;32;20056;-57
2023/09/21 22:35:52;;;;;;;0.87;0.20;;;;;;;15.08;100.00;96628.38;18555221;32;20063;-57
2023/09/21 22:46:01;;;;;;;1.90;0.40;;;;;;;15.01;100.00;96628.09;18568386;32;20120;-57
2023/09/21 22:56:04;;;;;;;7.75;0.73;;;;;;;15.01;100.00;96623.44;18568183;32;20056;-57
2023/09/21 23:06:08;;;;;;;2.45;0.50;;;;;;;14.99;100.00;96603.09;18552810;32;20056;-57
2023/09/21 23:16:11;;;;;;;2.10;0.65;;;;;;;14.95;100.00;96599.44;18566987;31;20097;-57
2023/09/21 23:26:16;;;;;;;7.93;0.77;;;;;;;14.87;100.00;96606.53;18566504;32;20437;-57
2023/09/21 23:36:18;;;;;;;1.25;0.40;;;;;;;14.79;100.00;96599.97;18565824;32;20341;-57
2023/09/21 23:46:20;;;;;;;2.90;0.47;;;;;;;14.67;100.00;96599.84;18564730;32;20057;-57
2023/09/21 23:56:25;;;;;;;3.05;0.62;;;;;;;14.51;100.00;96600.31;18550388;32;20067;-57
